Time;durP1;ratioP1;P1;durP2;ratioP2;P2;SDS_P1;SDS_P2;PMS_P1;PMS_P2;Temp;Humidity;BMP_temperature;BMP_pressure;BME280_temperature;BME280_humidity;BME280_pressure;Samples;Min_cycle;Max_cycle;Signal;HPM_P1;HPM_P2
2022/10/30 00:02:01;;;;;;;22.98;15.93;;;;;;;;;;5096071;28;20434;-89
2022/10/30 00:04:27;;;;;;;26.55;15.60;;;;;;;;;;5096210;28;20407;-89
2022/10/30 00:06:53;;;;;;;23.15;14.90;;;;;;;;;;5113628;28;20411;-80
2022/10/30 00:09:19;;;;;;;24.80;13.87;;;;;;;;;;5111980;28;20174;-80
2022/10/30 00:11:45;;;;;;;19.53;13.67;;;;;;;;;;5100363;28;20257;-80
2022/10/30 00:14:12;;;;;;;22.10;14.20;;;;;;;;;;5112292;28;20186;-80
2022/10/30 00:16:38;;;;;;;22.10;13.67;;;;;;;;;;5081324;28;20182;-80
2022/10/30 00:19:04;;;;;;;17.10;13.13;;;;;;;;;;5096840;28;20181;-80
2022/10/30 00:21:30;;;;;;;27.67;17.15;;;;;;;;;;5087504;28;20438;-81
2022/10/30 00:23:56;;;;;;;30.75;19.50;;;;;;;;;;5113361;28;20399;-80
2022/10/30 00:26:23;;;;;;;25.57;17.13;;;;;;;;;;5113766;28;20174;-80
2022/10/30 00:28:53;;;;;;;27.25;17.63;;;;;;;;;;5097686;28;20476;-89
2022/10/30 00:31:20;;;;;;;27.47;14.33;;;;;;;;;;5114317;28;20268;-89
2022/10/30 00:33:50;;;;;;;21.88;15.27;;;;;;;;;;5113821;28;20452;-89
2022/10/30 00:36:16;;;;;;;19.37;12.83;;;;;;;;;;5113940;28;20177;-80
2022/10/30 00:38:42;;;;;;;25.48;14.35;;;;;;;;;;5095949;28;20441;-81
2022/10/30 00:41:13;;;;;;;21.23;14.27;;;;;;;;;;5082449;28;20444;-81
2022/10/30 00:43:40;;;;;;;21.75;14.55;;;;;;;;;;5127869;28;20407;-80
2022/10/30 00:46:23;;;;;;;21.75;14.63;;;;;;;;;;5113316;28;20430;-89
2022/10/30 00:48:54;;;;;;;22.80;13.30;;;;;;;;;;5113748;28;20218;-89
2022/10/30 00:51:20;;;;;;;22.67;14.43;;;;;;;;;;5112874;28;20410;-87
2022/10/30 00:53:47;;;;;;;18.50;12.70;;;;;;;;;;5114340;28;20219;-89
2022/10/30 00:56:14;;;;;;;21.73;14.23;;;;;;;;;;5095914;28;20406;-88
2022/10/30 00:58:44;;;;;;;23.73;14.48;;;;;;;;;;5112358;28;20403;-89
2022/10/30 01:01:14;;;;;;;19.60;12.73;;;;;;;;;;5113929;28;20178;-90
2022/10/30 01:03:41;;;;;;;21.70;13.70;;;;;;;;;;5111401;28;20460;-89
2022/10/30 01:06:08;;;;;;;22.47;12.50;;;;;;;;;;5092985;28;20182;-89
2022/10/30 01:08:34;;;;;;;20.65;13.48;;;;;;;;;;5093909;28;20412;-90
2022/10/30 01:11:01;;;;;;;18.50;13.70;;;;;;;;;;5075507;28;20443;-89
2022/10/30 01:13:28;;;;;;;24.73;13.93;;;;;;;;;;5092649;28;20174;-89
2022/10/30 01:16:09;;;;;;;23.70;12.70;;;;;;;;;;5092798;28;20186;-89
2022/10/30 01:18:38;;;;;;;20.52;13.45;;;;;;;;;;5093248;28;20405;-78
2022/10/30 01:21:07;;;;;;;20.53;12.23;;;;;;;;;;5089721;28;20163;-77
2022/10/30 01:23:33;;;;;;;20.65;13.07;;;;;;;;;;5097460;28;20478;-77
2022/10/30 01:26:17;;;;;;;19.50;12.83;;;;;;;;;;5093174;28;20401;-80
2022/10/30 01:28:52;;;;;;;23.42;13.48;;;;;;;;;;5089598;28;20409;-80
2022/10/30 01:31:24;;;;;;;20.63;12.50;;;;;;;;;;5095862;28;20438;-81
2022/10/30 01:33:53;;;;;;;21.60;14.10;;;;;;;;;;5086081;28;20414;-80
2022/10/30 01:36:25;;;;;;;24.25;14.55;;;;;;;;;;5094045;28;20414;-81
2022/10/30 01:38:54;;;;;;;19.23;12.37;;;;;;;;;;5095734;28;20206;-81
2022/10/30 01:41:20;;;;;;;22.90;14.90;;;;;;;;;;5096247;28;20428;-88
2022/10/30 01:43:46;;;;;;;20.73;14.27;;;;;;;;;;5095578;28;20431;-89
2022/10/30 01:46:20;;;;;;;18.33;12.00;;;;;;;;;;5095785;28;20181;-89
2022/10/30 01:48:55;;;;;;;21.35;13.50;;;;;;;;;;5095298;28;20414;-89
2022/10/30 01:51:21;;;;;;;19.97;11.47;;;;;;;;;;5095697;28;20182;-79
2022/10/30 01:54:05;;;;;;;21.83;11.77;;;;;;;;;;5107126;28;20185;-80
2022/10/30 01:56:38;;;;;;;19.93;11.37;;;;;;;;;;5103796;28;20190;-80
2022/10/30 01:59:14;;;;;;;18.47;11.63;;;;;;;;;;5091857;28;20210;-80
2022/10/30 02:01:40;;;;;;;19.87;11.80;;;;;;;;;;5095158;28;20213;-80
2022/10/30 02:04:12;;;;;;;17.63;11.50;;;;;;;;;;5078383;28;20174;-80
2022/10/30 02:06:38;;;;;;;21.67;13.70;;;;;;;;;;5095902;28;20471;-80
2022/10/30 02:09:04;;;;;;;19.20;13.40;;;;;;;;;;5082408;28;20425;-77
2022/10/30 02:11:31;;;;;;;16.97;11.27;;;;;;;;;;5095485;28;20253;-78
2022/10/30 02:13:58;;;;;;;18.90;11.20;;;;;;;;;;5078251;28;20217;-78
2022/10/30 02:16:24;;;;;;;18.47;11.33;;;;;;;;;;5100331;28;20182;-78
2022/10/30 02:18:50;;;;;;;19.30;11.10;;;;;;;;;;5110081;28;20241;-78
2022/10/30 02:21:16;;;;;;;17.43;10.07;;;;;;;;;;5102926;28;20182;-78
2022/10/30 02:23:42;;;;;;;16.83;11.03;;;;;;;;;;5102626;28;20178;-78
2022/10/30 02:26:08;;;;;;;20.07;11.80;;;;;;;;;;5098481;28;20211;-78
2022/10/30 02:28:34;;;;;;;19.30;11.33;;;;;;;;;;5104839;28;20186;-78
2022/10/30 02:31:00;;;;;;;19.83;11.30;;;;;;;;;;5109728;28;20174;-78
2022/10/30 02:33:26;;;;;;;19.87;11.03;;;;;;;;;;5110659;28;20182;-78
2022/10/30 02:35:53;;;;;;;17.17;10.63;;;;;;;;;;5094756;28;20174;-78
2022/10/30 02:38:19;;;;;;;18.13;11.30;;;;;;;;;;5085593;28;20256;-78
2022/10/30 02:40:45;;;;;;;18.70;11.97;;;;;;;;;;5077983;28;20186;-89
2022/10/30 02:43:11;;;;;;;21.35;12.95;;;;;;;;;;5093932;28;20441;-89
2022/10/30 02:45:37;;;;;;;17.03;12.00;;;;;;;;;;5077877;28;20216;-88
2022/10/30 02:48:03;;;;;;;18.20;11.00;;;;;;;;;;5077526;28;20275;-78
2022/10/30 02:50:29;;;;;;;23.23;10.70;;;;;;;;;;5085392;28;20183;-78
2022/10/30 02:52:55;;;;;;;21.80;11.67;;;;;;;;;;5077896;28;20186;-79
2022/10/30 02:55:21;;;;;;;24.27;11.77;;;;;;;;;;5077576;28;20243;-78
2022/10/30 02:57:47;;;;;;;22.17;11.40;;;;;;;;;;5092949;28;20197;-89
2022/10/30 03:00:14;;;;;;;18.93;11.70;;;;;;;;;;5095345;28;20190;-89
2022/10/30 03:02:40;;;;;;;18.30;10.93;;;;;;;;;;5094309;28;20279;-90
2022/10/30 03:05:06;;;;;;;23.03;11.20;;;;;;;;;;5077589;28;20227;-89
2022/10/30 03:07:32;;;;;;;17.17;10.87;;;;;;;;;;5113004;28;20174;-89
2022/10/30 03:09:58;;;;;;;19.67;10.70;;;;;;;;;;5098125;28;20178;-89
2022/10/30 03:12:24;;;;;;;17.83;11.03;;;;;;;;;;5097560;28;20182;-90
2022/10/30 03:14:50;;;;;;;20.90;12.23;;;;;;;;;;5083115;28;20509;-78
2022/10/30 03:17:16;;;;;;;19.73;11.47;;;;;;;;;;5074867;28;20179;-78
2022/10/30 03:19:42;;;;;;;17.73;10.67;;;;;;;;;;5102631;28;20182;-78
2022/10/30 03:22:08;;;;;;;15.53;11.30;;;;;;;;;;5089183;28;20210;-78
2022/10/30 03:24:34;;;;;;;17.77;11.47;;;;;;;;;;5101250;28;20170;-81
2022/10/30 03:27:00;;;;;;;16.93;10.50;;;;;;;;;;5114390;28;20180;-81
2022/10/30 03:29:26;;;;;;;21.97;11.03;;;;;;;;;;5114003;28;20182;-81
2022/10/30 03:31:52;;;;;;;18.03;12.87;;;;;;;;;;5086070;28;20418;-81
2022/10/30 03:34:18;;;;;;;19.13;11.20;;;;;;;;;;5084068;28;20185;-81
2022/10/30 03:36:44;;;;;;;16.70;11.70;;;;;;;;;;5076421;28;20425;-80
2022/10/30 03:39:10;;;;;;;18.33;10.30;;;;;;;;;;5094591;28;20416;-80
2022/10/30 03:41:36;;;;;;;20.50;12.67;;;;;;;;;;5092655;28;20537;-80
2022/10/30 03:44:02;;;;;;;19.20;13.43;;;;;;;;;;5094186;28;20409;-80
2022/10/30 03:46:30;;;;;;;20.33;11.73;;;;;;;;;;5088268;28;20306;-80
2022/10/30 03:48:56;;;;;;;22.40;11.17;;;;;;;;;;5073423;28;20250;-88
2022/10/30 03:51:22;;;;;;;19.98;12.38;;;;;;;;;;5056156;28;20445;-90
2022/10/30 03:53:48;;;;;;;16.93;10.93;;;;;;;;;;5056748;28;20870;-90
2022/10/30 03:56:14;;;;;;;17.87;11.00;;;;;;;;;;5074535;28;20186;-90
2022/10/30 03:58:40;;;;;;;17.77;11.43;;;;;;;;;;5056644;28;20246;-89
2022/10/30 04:01:06;;;;;;;17.57;10.70;;;;;;;;;;5056576;28;20237;-81
2022/10/30 04:03:32;;;;;;;16.80;12.00;;;;;;;;;;5091574;28;20444;-81
2022/10/30 04:05:58;;;;;;;19.30;11.47;;;;;;;;;;5105646;28;20219;-81
2022/10/30 04:08:24;;;;;;;20.45;12.07;;;;;;;;;;5114326;28;20395;-81
2022/10/30 04:10:50;;;;;;;16.47;11.20;;;;;;;;;;5096802;28;20178;-81
2022/10/30 04:13:19;;;;;;;19.25;12.50;;;;;;;;;;5082134;28;20417;-81
2022/10/30 04:15:46;;;;;;;17.50;11.73;;;;;;;;;;5092574;28;20237;-81
2022/10/30 04:18:12;;;;;;;16.97;10.57;;;;;;;;;;5113622;28;20195;-80
2022/10/30 04:20:38;;;;;;;16.73;11.00;;;;;;;;;;5104033;28;20196;-81
2022/10/30 04:23:05;;;;;;;14.97;10.67;;;;;;;;;;5080169;28;20255;-81
2022/10/30 04:25:33;;;;;;;15.23;10.53;;;;;;;;;;5072837;28;20187;-81
2022/10/30 04:27:59;;;;;;;14.20;11.00;;;;;;;;;;5073914;28;20175;-81
2022/10/30 04:30:26;;;;;;;15.97;10.97;;;;;;;;;;5082339;28;20189;-81
2022/10/30 04:32:55;;;;;;;16.50;10.57;;;;;;;;;;5076305;28;20320;-81
2022/10/30 04:35:23;;;;;;;19.63;12.63;;;;;;;;;;5093182;28;20483;-81
2022/10/30 04:37:59;;;;;;;18.47;11.47;;;;;;;;;;5097346;28;20182;-81
2022/10/30 04:40:26;;;;;;;16.63;10.93;;;;;;;;;;5110849;28;20298;-81
2022/10/30 04:42:52;;;;;;;21.33;12.32;;;;;;;;;;5092581;28;20520;-81
2022/10/30 04:45:19;;;;;;;17.40;10.83;;;;;;;;;;5093423;28;20324;-81
2022/10/30 04:47:45;;;;;;;19.20;10.80;;;;;;;;;;5110824;28;20427;-80
2022/10/30 04:50:11;;;;;;;16.50;10.43;;;;;;;;;;5107105;28;20186;-81
2022/10/30 04:52:37;;;;;;;19.20;11.00;;;;;;;;;;5092909;28;20265;-81
2022/10/30 04:55:03;;;;;;;17.33;10.70;;;;;;;;;;5101751;28;20212;-81
2022/10/30 04:57:33;;;;;;;18.63;10.53;;;;;;;;;;5072690;28;20187;-81
2022/10/30 04:59:59;;;;;;;19.60;11.07;;;;;;;;;;5087436;28;20248;-81
2022/10/30 05:02:25;;;;;;;20.50;11.40;;;;;;;;;;5109466;28;20205;-81
2022/10/30 05:04:51;;;;;;;17.20;10.93;;;;;;;;;;5117078;28;20185;-80
2022/10/30 05:07:17;;;;;;;18.90;10.83;;;;;;;;;;5095828;28;20184;-80
2022/10/30 05:09:43;;;;;;;16.70;10.87;;;;;;;;;;5060204;28;20176;-80
2022/10/30 05:12:10;;;;;;;20.50;10.97;;;;;;;;;;5085952;28;20210;-89
2022/10/30 05:14:36;;;;;;;15.97;10.80;;;;;;;;;;5077294;28;20175;-89
2022/10/30 05:17:02;;;;;;;19.40;11.33;;;;;;;;;;5077239;28;20184;-89
2022/10/30 05:19:28;;;;;;;14.47;11.27;;;;;;;;;;5093431;28;20270;-89
2022/10/30 05:21:54;;;;;;;16.57;11.13;;;;;;;;;;5113469;27;20201;-88
2022/10/30 05:24:20;;;;;;;13.93;10.70;;;;;;;;;;5086490;28;20194;-80
2022/10/30 05:26:46;;;;;;;18.10;11.63;;;;;;;;;;5076074;28;20183;-81
2022/10/30 05:29:12;;;;;;;19.47;11.70;;;;;;;;;;5076283;28;20248;-89
2022/10/30 05:31:38;;;;;;;16.43;11.47;;;;;;;;;;5059516;28;20187;-89
2022/10/30 05:34:04;;;;;;;19.20;11.63;;;;;;;;;;5062902;28;20190;-89
2022/10/30 05:36:30;;;;;;;19.67;11.20;;;;;;;;;;5116862;28;20268;-90
2022/10/30 05:38:56;;;;;;;17.40;11.30;;;;;;;;;;5071324;28;20290;-80
2022/10/30 05:41:22;;;;;;;18.30;11.27;;;;;;;;;;5116386;28;20186;-81
2022/10/30 05:43:48;;;;;;;19.73;11.17;;;;;;;;;;5099470;28;20269;-81
2022/10/30 05:46:14;;;;;;;22.37;12.10;;;;;;;;;;5085741;28;20183;-80
2022/10/30 05:48:40;;;;;;;16.30;11.37;;;;;;;;;;5092102;28;20224;-80
2022/10/30 05:51:07;;;;;;;19.17;11.13;;;;;;;;;;5076997;28;20186;-80
2022/10/30 05:53:33;;;;;;;18.40;10.73;;;;;;;;;;5097557;28;20179;-80
2022/10/30 05:55:59;;;;;;;18.13;11.83;;;;;;;;;;5111355;28;20242;-80
2022/10/30 05:58:25;;;;;;;20.00;11.87;;;;;;;;;;5078047;28;20274;-81
2022/10/30 06:00:52;;;;;;;16.03;11.30;;;;;;;;;;5099429;28;20183;-80
2022/10/30 06:03:18;;;;;;;18.30;11.97;;;;;;;;;;5096448;28;20203;-80
2022/10/30 06:05:45;;;;;;;16.37;12.13;;;;;;;;;;5095468;28;20228;-80
2022/10/30 06:08:11;;;;;;;16.30;11.53;;;;;;;;;;5101190;28;20204;-80
2022/10/30 06:10:37;;;;;;;18.23;13.30;;;;;;;;;;5115944;28;20178;-80
2022/10/30 06:13:04;;;;;;;22.27;12.80;;;;;;;;;;5108917;28;20175;-80
2022/10/30 06:15:30;;;;;;;19.60;12.83;;;;;;;;;;5095141;28;20182;-80
2022/10/30 06:17:56;;;;;;;19.63;12.73;;;;;;;;;;5095075;28;20182;-80
2022/10/30 06:20:24;;;;;;;21.73;13.67;;;;;;;;;;5096044;28;20182;-80
2022/10/30 06:22:53;;;;;;;19.47;14.43;;;;;;;;;;5094874;28;20212;-80
2022/10/30 06:25:19;;;;;;;17.03;13.53;;;;;;;;;;5095050;28;20175;-80
2022/10/30 06:27:45;;;;;;;19.33;14.17;;;;;;;;;;5078042;28;20190;-80
2022/10/30 06:30:11;;;;;;;25.07;14.70;;;;;;;;;;5095699;28;20243;-80
2022/10/30 06:32:37;;;;;;;25.93;14.33;;;;;;;;;;5094368;28;20178;-80
2022/10/30 06:35:04;;;;;;;22.63;13.50;;;;;;;;;;5098219;28;20174;-81
2022/10/30 06:37:30;;;;;;;24.83;13.47;;;;;;;;;;5094797;28;20178;-81
2022/10/30 06:39:56;;;;;;;20.17;12.97;;;;;;;;;;5094677;28;20194;-80
2022/10/30 06:42:22;;;;;;;21.07;13.80;;;;;;;;;;5094651;28;20206;-80
2022/10/30 06:44:48;;;;;;;19.73;13.30;;;;;;;;;;5074840;28;20233;-80
2022/10/30 06:47:14;;;;;;;22.03;13.77;;;;;;;;;;5078725;28;20226;-81
2022/10/30 06:49:40;;;;;;;20.77;13.43;;;;;;;;;;5095446;28;20178;-81
2022/10/30 06:52:06;;;;;;;20.03;13.53;;;;;;;;;;5114850;28;20178;-81
2022/10/30 06:54:32;;;;;;;21.37;12.83;;;;;;;;;;5111559;28;20236;-81
2022/10/30 06:56:58;;;;;;;18.40;13.00;;;;;;;;;;5100221;28;20191;-81
2022/10/30 06:59:24;;;;;;;16.50;13.00;;;;;;;;;;5097963;28;20293;-81
2022/10/30 07:01:50;;;;;;;22.30;12.67;;;;;;;;;;5113297;22;20230;-77
2022/10/30 07:04:16;;;;;;;23.87;13.83;;;;;;;;;;5073765;28;20186;-78
2022/10/30 07:06:42;;;;;;;17.50;13.53;;;;;;;;;;5087199;28;20233;-77
2022/10/30 07:09:09;;;;;;;21.47;13.67;;;;;;;;;;5092463;28;20175;-87
2022/10/30 07:11:35;;;;;;;22.83;13.97;;;;;;;;;;5094407;28;20186;-89
2022/10/30 07:14:01;;;;;;;20.57;13.97;;;;;;;;;;5094208;28;20178;-88
2022/10/30 07:16:27;;;;;;;18.67;13.67;;;;;;;;;;5094469;28;20200;-89
2022/10/30 07:18:55;;;;;;;19.13;12.90;;;;;;;;;;5094436;28;20273;-89
2022/10/30 07:21:21;;;;;;;18.67;12.90;;;;;;;;;;5094917;28;20255;-88
2022/10/30 07:23:47;;;;;;;18.47;13.20;;;;;;;;;;5094628;28;20269;-81
2022/10/30 07:26:13;;;;;;;20.73;14.10;;;;;;;;;;5089213;28;20211;-80
2022/10/30 07:28:39;;;;;;;21.37;13.80;;;;;;;;;;5081155;28;20270;-80
2022/10/30 07:31:05;;;;;;;21.03;13.43;;;;;;;;;;5079783;28;20175;-80
2022/10/30 07:33:31;;;;;;;19.33;13.53;;;;;;;;;;5093642;28;20269;-80
2022/10/30 07:35:59;;;;;;;18.70;13.10;;;;;;;;;;5092158;28;20179;-81
2022/10/30 07:38:28;;;;;;;21.87;13.07;;;;;;;;;;5093461;28;20244;-80
2022/10/30 07:40:54;;;;;;;21.07;13.97;;;;;;;;;;5088939;28;20187;-78
2022/10/30 07:43:20;;;;;;;24.23;13.67;;;;;;;;;;5076482;28;20267;-78
2022/10/30 07:45:47;;;;;;;23.80;14.40;;;;;;;;;;5082416;28;21101;-78
2022/10/30 07:48:13;;;;;;;18.30;13.80;;;;;;;;;;5088040;28;20190;-78
2022/10/30 07:50:39;;;;;;;20.50;13.40;;;;;;;;;;5092262;28;20193;-78
2022/10/30 07:53:05;;;;;;;19.93;13.50;;;;;;;;;;5093368;28;20255;-78
2022/10/30 07:55:31;;;;;;;20.20;13.80;;;;;;;;;;5110730;28;20186;-78
2022/10/30 07:57:57;;;;;;;19.60;13.73;;;;;;;;;;5075262;28;20182;-78
2022/10/30 08:00:23;;;;;;;19.50;14.73;;;;;;;;;;5103111;28;20200;-78
2022/10/30 08:02:50;;;;;;;21.13;13.57;;;;;;;;;;5110284;28;20226;-78
2022/10/30 08:05:16;;;;;;;22.83;14.37;;;;;;;;;;5092019;28;20190;-78
2022/10/30 08:07:42;;;;;;;22.63;13.70;;;;;;;;;;5093646;28;20202;-79
2022/10/30 08:10:08;;;;;;;15.33;12.53;;;;;;;;;;5089519;28;20250;-78
2022/10/30 08:12:35;;;;;;;19.97;12.93;;;;;;;;;;5092592;28;20182;-78
2022/10/30 08:15:01;;;;;;;18.57;11.93;;;;;;;;;;5086479;28;20252;-81
2022/10/30 08:17:27;;;;;;;15.00;11.70;;;;;;;;;;5075407;28;20194;-81
2022/10/30 08:19:54;;;;;;;18.57;12.20;;;;;;;;;;5081037;28;20175;-81
2022/10/30 08:22:20;;;;;;;18.23;12.90;;;;;;;;;;5087329;28;20265;-81
2022/10/30 08:24:46;;;;;;;19.23;12.07;;;;;;;;;;5074230;28;20179;-81
2022/10/30 08:27:12;;;;;;;14.73;12.33;;;;;;;;;;5073254;28;20210;-80
2022/10/30 08:29:38;;;;;;;17.83;13.07;;;;;;;;;;5072718;28;20270;-80
2022/10/30 08:32:04;;;;;;;18.53;12.10;;;;;;;;;;5063062;28;20197;-79
2022/10/30 08:34:31;;;;;;;16.93;12.40;;;;;;;;;;5056207;28;20187;-78
2022/10/30 08:36:57;;;;;;;19.17;12.57;;;;;;;;;;5080555;28;20175;-79
2022/10/30 08:39:23;;;;;;;17.47;12.83;;;;;;;;;;5088666;28;20183;-78
2022/10/30 08:41:49;;;;;;;18.30;12.93;;;;;;;;;;5093006;28;20199;-78
2022/10/30 08:44:15;;;;;;;14.13;11.70;;;;;;;;;;5096957;28;20170;-79
2022/10/30 08:46:41;;;;;;;16.97;11.97;;;;;;;;;;5073283;28;20184;-79
2022/10/30 08:49:07;;;;;;;20.37;11.73;;;;;;;;;;5068701;28;20195;-81
2022/10/30 08:51:34;;;;;;;17.37;10.60;;;;;;;;;;5076607;28;20266;-81
2022/10/30 08:54:00;;;;;;;19.20;10.63;;;;;;;;;;5082265;28;20179;-81
2022/10/30 08:56:26;;;;;;;20.93;11.27;;;;;;;;;;5080054;28;20273;-81
2022/10/30 08:58:53;;;;;;;16.93;10.80;;;;;;;;;;5090443;28;20221;-81
2022/10/30 09:01:19;;;;;;;18.47;11.00;;;;;;;;;;5077912;28;20206;-82
2022/10/30 09:03:46;;;;;;;18.33;10.60;;;;;;;;;;5085650;28;20171;-82
2022/10/30 09:06:12;;;;;;;21.07;11.10;;;;;;;;;;5076191;28;20233;-81
2022/10/30 09:08:38;;;;;;;14.47;10.87;;;;;;;;;;5093479;28;20183;-81
2022/10/30 09:11:04;;;;;;;15.60;10.17;;;;;;;;;;5079018;28;20183;-81
2022/10/30 09:13:30;;;;;;;16.37;10.30;;;;;;;;;;5096466;28;20228;-81
2022/10/30 09:16:00;;;;;;;20.83;11.70;;;;;;;;;;5079453;28;20229;-82
2022/10/30 09:18:27;;;;;;;19.63;11.27;;;;;;;;;;5096416;28;20179;-81
2022/10/30 09:20:53;;;;;;;13.50;10.53;;;;;;;;;;5075779;28;20221;-82
2022/10/30 09:23:19;;;;;;;17.30;10.57;;;;;;;;;;5092639;28;20223;-82
2022/10/30 09:25:45;;;;;;;15.30;11.17;;;;;;;;;;5080522;28;20205;-90
2022/10/30 09:28:11;;;;;;;19.03;11.77;;;;;;;;;;5095868;28;20186;-90
2022/10/30 09:30:37;;;;;;;16.23;11.10;;;;;;;;;;5097218;28;20261;-90
2022/10/30 09:33:03;;;;;;;16.50;10.90;;;;;;;;;;5096066;28;20183;-91
2022/10/30 09:35:29;;;;;;;15.63;10.33;;;;;;;;;;5078987;28;20182;-91
2022/10/30 09:37:56;;;;;;;18.57;11.63;;;;;;;;;;5095834;28;20186;-82
2022/10/30 09:40:28;;;;;;;15.52;10.27;;;;;;;;;;5079213;28;20178;-82
2022/10/30 09:42:57;;;;;;;14.67;10.80;;;;;;;;;;5097096;28;20194;-82
2022/10/30 09:45:29;;;;;;;12.00;10.23;;;;;;;;;;5079059;28;20201;-82
2022/10/30 09:48:14;;;;;;;14.85;10.27;;;;;;;;;;5111102;28;20178;-82
2022/10/30 09:50:46;;;;;;;15.13;10.65;;;;;;;;;;5096876;28;20175;-82
2022/10/30 09:53:16;;;;;;;15.63;10.13;;;;;;;;;;5095713;28;20189;-82
2022/10/30 09:55:45;;;;;;;16.75;10.15;;;;;;;;;;5086334;28;20213;-79
2022/10/30 09:58:25;;;;;;;16.05;10.65;;;;;;;;;;5112555;28;20182;-80
2022/10/30 10:01:18;;;;;;;17.23;10.38;;;;;;;;;;5096515;28;20171;-79
2022/10/30 10:04:02;;;;;;;17.48;10.45;;;;;;;;;;5087188;28;20199;-79
2022/10/30 10:06:29;;;;;;;18.67;10.93;;;;;;;;;;5109315;28;20182;-80
2022/10/30 10:09:07;;;;;;;15.85;11.15;;;;;;;;;;5087055;28;20175;-80
2022/10/30 10:11:36;;;;;;;14.38;10.43;;;;;;;;;;5075509;28;20179;-82
2022/10/30 10:14:21;;;;;;;15.45;10.95;;;;;;;;;;5084505;28;20197;-82
2022/10/30 10:16:49;;;;;;;14.00;9.90;;;;;;;;;;5092078;28;20171;-82
2022/10/30 10:19:38;;;;;;;18.17;11.18;;;;;;;;;;5086924;28;20257;-82
2022/10/30 10:22:13;;;;;;;15.45;10.75;;;;;;;;;;5079278;28;20203;-82
2022/10/30 10:24:43;;;;;;;17.23;10.90;;;;;;;;;;5109221;28;20310;-82
2022/10/30 10:27:21;;;;;;;17.75;10.90;;;;;;;;;;5076192;28;20167;-82
2022/10/30 10:30:01;;;;;;;14.63;10.18;;;;;;;;;;5108581;28;20183;-82
2022/10/30 10:32:38;;;;;;;19.60;10.60;;;;;;;;;;5100885;28;20205;-82
2022/10/30 10:35:04;;;;;;;20.38;10.80;;;;;;;;;;5094541;28;20174;-82
2022/10/30 10:37:37;;;;;;;21.95;10.57;;;;;;;;;;5094894;28;20190;-82
2022/10/30 10:40:11;;;;;;;15.13;9.93;;;;;;;;;;5094377;28;20263;-82
2022/10/30 10:42:43;;;;;;;16.52;9.80;;;;;;;;;;5096047;28;20339;-82
2022/10/30 10:45:32;;;;;;;14.98;10.32;;;;;;;;;;5090212;28;20179;-91
2022/10/30 10:48:17;;;;;;;16.55;10.07;;;;;;;;;;5095874;28;20171;-92
2022/10/30 10:50:49;;;;;;;18.88;10.15;;;;;;;;;;5089502;28;20175;-90
2022/10/30 10:53:21;;;;;;;16.88;10.90;;;;;;;;;;5085676;28;20183;-91
2022/10/30 10:55:48;;;;;;;20.42;10.75;;;;;;;;;;5092776;28;20178;-91
2022/10/30 10:58:33;;;;;;;16.67;10.38;;;;;;;;;;5094618;28;20171;-91
2022/10/30 11:00:59;;;;;;;18.48;10.77;;;;;;;;;;5094316;28;20174;-82
2022/10/30 11:03:32;;;;;;;17.70;10.25;;;;;;;;;;5094133;28;20229;-82
2022/10/30 11:06:17;;;;;;;18.45;10.05;;;;;;;;;;5074219;28;20182;-82
2022/10/30 11:08:43;;;;;;;21.45;10.13;;;;;;;;;;5074936;28;20175;-82
2022/10/30 11:11:09;;;;;;;16.35;10.02;;;;;;;;;;5073865;28;20218;-82
2022/10/30 11:13:36;;;;;;;19.55;10.15;;;;;;;;;;5081426;28;20261;-82
2022/10/30 11:16:22;;;;;;;16.30;10.13;;;;;;;;;;5094546;28;20237;-81
2022/10/30 11:18:50;;;;;;;17.90;11.13;;;;;;;;;;5094269;28;20178;-90
2022/10/30 11:21:22;;;;;;;21.77;11.52;;;;;;;;;;5094507;28;20181;-91
2022/10/30 11:23:48;;;;;;;16.42;10.93;;;;;;;;;;5081393;28;20214;-91
2022/10/30 11:26:14;;;;;;;17.08;10.45;;;;;;;;;;5107679;28;20175;-90
2022/10/30 11:28:44;;;;;;;16.77;9.95;;;;;;;;;;5107530;28;20187;-90
2022/10/30 11:31:18;;;;;;;15.85;10.82;;;;;;;;;;5107431;28;20181;-90
2022/10/30 11:33:44;;;;;;;19.50;10.45;;;;;;;;;;5083284;28;20190;-79
2022/10/30 11:36:10;;;;;;;16.17;10.27;;;;;;;;;;5077276;28;20221;-79
2022/10/30 11:38:36;;;;;;;16.63;10.52;;;;;;;;;;5080076;28;20190;-79
2022/10/30 11:41:02;;;;;;;19.17;10.73;;;;;;;;;;5073880;28;20235;-79
2022/10/30 11:43:28;;;;;;;23.92;11.07;;;;;;;;;;5094444;28;20202;-79
2022/10/30 11:45:54;;;;;;;17.60;10.68;;;;;;;;;;5075284;28;20182;-79
2022/10/30 11:48:29;;;;;;;18.05;10.60;;;;;;;;;;5094796;28;20171;-79
2022/10/30 11:50:57;;;;;;;16.73;10.38;;;;;;;;;;5093536;28;20233;-81
2022/10/30 11:53:31;;;;;;;21.98;10.68;;;;;;;;;;5085089;28;20214;-81
2022/10/30 11:55:58;;;;;;;15.32;10.52;;;;;;;;;;5110758;28;20189;-89
2022/10/30 11:58:27;;;;;;;16.92;11.18;;;;;;;;;;5093623;28;20194;-89
2022/10/30 12:01:02;;;;;;;18.02;10.55;;;;;;;;;;5093445;28;20185;-89
2022/10/30 12:03:30;;;;;;;20.30;10.57;;;;;;;;;;5073547;28;20344;-89
2022/10/30 12:06:16;;;;;;;15.47;10.10;;;;;;;;;;5090407;28;20175;-90
2022/10/30 12:08:57;;;;;;;19.60;10.23;;;;;;;;;;5093192;28;20260;-90
2022/10/30 12:11:27;;;;;;;15.88;10.35;;;;;;;;;;5109726;28;20174;-90
2022/10/30 12:13:54;;;;;;;19.73;10.55;;;;;;;;;;5110228;28;20181;-90
2022/10/30 12:16:20;;;;;;;18.17;10.63;;;;;;;;;;5110370;28;20182;-89
2022/10/30 12:18:56;;;;;;;19.95;9.90;;;;;;;;;;5093423;28;20192;-89
2022/10/30 12:21:23;;;;;;;18.73;9.90;;;;;;;;;;5112017;28;20178;-90
2022/10/30 12:23:55;;;;;;;19.73;9.57;;;;;;;;;;5097162;28;20285;-82
2022/10/30 12:26:22;;;;;;;18.07;9.57;;;;;;;;;;5097022;28;20179;-82
2022/10/30 12:28:56;;;;;;;13.67;8.63;;;;;;;;;;5099449;28;20175;-82
2022/10/30 12:31:25;;;;;;;16.60;8.90;;;;;;;;;;5092346;28;20174;-81
2022/10/30 12:34:12;;;;;;;20.73;9.47;;;;;;;;;;5094203;28;20179;-82
2022/10/30 12:36:44;;;;;;;15.40;9.10;;;;;;;;;;5093885;28;20214;-82
2022/10/30 12:39:13;;;;;;;20.17;9.63;;;;;;;;;;5092964;28;20212;-82
2022/10/30 12:41:44;;;;;;;17.07;9.10;;;;;;;;;;5082190;28;20252;-82
2022/10/30 12:44:13;;;;;;;20.33;9.50;;;;;;;;;;5109232;28;20179;-81
2022/10/30 12:46:49;;;;;;;18.97;9.57;;;;;;;;;;5098941;28;20172;-81
2022/10/30 12:49:20;;;;;;;15.40;9.03;;;;;;;;;;5075330;28;20183;-82
2022/10/30 12:51:52;;;;;;;18.23;8.93;;;;;;;;;;5075340;28;20308;-81
2022/10/30 12:54:25;;;;;;;18.47;9.47;;;;;;;;;;5072669;28;20232;-81
2022/10/30 12:57:05;;;;;;;19.13;9.50;;;;;;;;;;5072477;28;20214;-82
2022/10/30 12:59:34;;;;;;;17.37;9.20;;;;;;;;;;5073402;28;20324;-90
2022/10/30 13:02:10;;;;;;;20.20;8.73;;;;;;;;;;5094288;28;20226;-90
2022/10/30 13:04:38;;;;;;;21.37;9.00;;;;;;;;;;5093108;28;20175;-90
2022/10/30 13:07:08;;;;;;;15.97;9.30;;;;;;;;;;5079413;28;20172;-90
2022/10/30 13:09:43;;;;;;;15.17;8.87;;;;;;;;;;5072520;28;20180;-90
2022/10/30 13:12:09;;;;;;;18.20;8.40;;;;;;;;;;5075191;28;20190;-90
2022/10/30 13:14:44;;;;;;;20.67;9.00;;;;;;;;;;5075644;28;20179;-79
2022/10/30 13:17:11;;;;;;;17.83;8.33;;;;;;;;;;5089194;28;20182;-78
2022/10/30 13:19:39;;;;;;;15.47;9.20;;;;;;;;;;5072432;28;20183;-79
2022/10/30 13:22:08;;;;;;;16.53;8.73;;;;;;;;;;5091498;28;20202;-78
2022/10/30 13:24:46;;;;;;;16.70;8.63;;;;;;;;;;5096217;28;20313;-78
2022/10/30 13:27:16;;;;;;;16.13;8.23;;;;;;;;;;5097195;28;20219;-78
2022/10/30 13:30:00;;;;;;;16.97;8.50;;;;;;;;;;5084321;28;20175;-78
2022/10/30 13:32:37;;;;;;;19.40;9.03;;;;;;;;;;5075860;28;20187;-82
2022/10/30 13:35:21;;;;;;;21.50;8.90;;;;;;;;;;5076888;28;20207;-82
2022/10/30 13:38:13;;;;;;;19.57;8.50;;;;;;;;;;5076808;28;20179;-81
2022/10/30 13:40:52;;;;;;;17.60;8.63;;;;;;;;;;5040081;28;20199;-82
2022/10/30 13:43:24;;;;;;;19.67;8.50;;;;;;;;;;5077032;28;20213;-81
2022/10/30 13:46:15;;;;;;;16.40;8.53;;;;;;;;;;5092668;28;20266;-81
2022/10/30 13:48:50;;;;;;;19.13;8.53;;;;;;;;;;5092664;28;20179;-81
2022/10/30 13:51:33;;;;;;;14.00;8.60;;;;;;;;;;5092524;28;20208;-81
2022/10/30 13:54:12;;;;;;;17.97;8.23;;;;;;;;;;5094313;28;20190;-81
2022/10/30 13:56:39;;;;;;;17.70;8.30;;;;;;;;;;5095669;28;20174;-81
2022/10/30 13:59:15;;;;;;;18.83;9.97;;;;;;;;;;5083204;28;20317;-81
2022/10/30 14:01:56;;;;;;;16.90;9.13;;;;;;;;;;5078513;28;20223;-81
2022/10/30 14:04:31;;;;;;;18.23;8.90;;;;;;;;;;5076496;28;20189;-81
2022/10/30 14:07:16;;;;;;;18.57;9.53;;;;;;;;;;5092061;28;20182;-81
2022/10/30 14:09:54;;;;;;;14.00;9.03;;;;;;;;;;5091934;28;20187;-78
2022/10/30 14:12:39;;;;;;;17.47;8.83;;;;;;;;;;5095240;28;20189;-79
2022/10/30 14:15:05;;;;;;;13.87;8.90;;;;;;;;;;5095211;28;20179;-78
2022/10/30 14:17:31;;;;;;;19.07;9.23;;;;;;;;;;5078065;28;20179;-79
2022/10/30 14:20:06;;;;;;;18.77;9.53;;;;;;;;;;5074734;28;20187;-78
2022/10/30 14:22:35;;;;;;;16.73;9.67;;;;;;;;;;5075327;28;20218;-90
2022/10/30 14:25:02;;;;;;;19.10;9.67;;;;;;;;;;5075277;28;20183;-89
2022/10/30 14:27:28;;;;;;;17.90;10.03;;;;;;;;;;5077655;28;20187;-90
2022/10/30 14:29:55;;;;;;;17.57;9.53;;;;;;;;;;5105574;28;20209;-90